This demonstration page uses our WeatherBlox Daily Observations layout. Learn more.

41.55636, -103.73856

Hourly Observations for May 18, 2019

Temp ( °F °C ) Dew Point ( °F °C ) Humidity (%) Winds ( mph kmh ) Pressure ( in mb ) Visibility ( mi km ) Precip ( " mm )
12:58 am 00:58 undefined 46 7.5 42 5.3 86 86 NNW 16 26 29.6 1002 10 16.0934 0 0
1:58 am 01:58 Mostly Clear with Light Rain 45 7.4 42 5.5 88 88 WNW 13 20 29.62 1003 10 16.0934 0.03 0.762
2:58 am 02:58 Mostly Clear with Light Rain 45 7.3 42 5.8 90 90 W 9 15 29.65 1004 10 16.0934 0 0
3:58 am 03:58 Mostly Clear with Light Showers 46 7.6 42 5.3 86 86 W 14 22 29.62 1003 10 16.0934 0 0
4:58 am 04:58 undefined 46 7.6 40 4.3 80 80 W 14 22 29.63 1003 10 16.0934 0.01 0.254
5:58 am 05:58 undefined 46 8 38 3.2 72 72 W 14 22 29.62 1003 10 16.0934 0 0
7:58 am 07:58 undefined 46 8 36 2.2 67 67 W 16 26 29.6 1002 10 16.0934 0 0
8:59 am 08:59 undefined 42 5.6 35 1.6 76 76 W 14 22 29.62 1003 10 16.0934 0 0
9:58 am 09:58 undefined 43 6.2 34 0.9 69 69 WNW 18 30 29.62 1003 10 16.0934 0 0
10:59 am 10:59 undefined 43 5.9 33 0.4 68 68 WNW 18 30 29.63 1004 10 16.0934 0 0
11:58 am 11:58 undefined 42 5.5 33 0.5 71 71 WNW 18 30 29.68 1005 10 16.0934 0 0
12:58 pm 12:58 undefined 44 6.7 35 1.6 70 70 NW 18 30 29.7 1006 10 16.0934 0 0
1:58 pm 13:58 undefined 47 8.2 37 2.5 68 68 NW 18 30 29.7 1006 10 16.0934 0 0
2:58 pm 14:58 undefined 50 9.9 37 3 62 62 NW 18 30 29.68 1005 10 16.0934 0 0
3:58 pm 15:58 undefined 52 11 37 3 58 58 NW 21 33 29.67 1005 10 16.0934 0 0
4:58 pm 16:58 undefined 53 11.8 39 4.1 60 60 NW 20 31 29.67 1005 10 16.0934 0 0
5:58 pm 17:58 undefined 52 11 42 5.7 70 70 NNW 16 26 29.69 1005 10 16.0934 0 0
7:58 pm 19:58 undefined 54 12.2 38 3.5 56 56 N 17 28 29.68 1005 10 16.0934 0 0
8:58 pm 20:58 undefined 54 12.1 41 4.9 62 62 N 21 33 29.72 1007 10 16.0934 0 0
9:58 pm 21:58 undefined 51 10.4 40 4.7 68 68 N 20 31 29.74 1007 10 16.0934 0 0
10:58 pm 22:58 undefined 47 8.2 37 2.5 68 68 N 20 31 29.79 1009 10 16.0934 0 0
11:58 pm 23:58 undefined 44 6.9 35 1.4 68 68 N 25 41 29.81 1010 10 16.0934 0 0

Powered by AerisWeather